aviador You're here:

KMHE Decoded Metar

MITCHELL in SD, USA
Report Time2018-07-19 17:53:00
UTC Time2018-07-19 18:41:12
Flight Rules vfr VFR
Wind300° at 19 Gusting to 27 kt
W.Decomp.*RWY 30: 18.9 kt HW 2.3 kt LCW
RWY 35: 10.3 kt HW 15.9 kt LCW
W.Rank300° ranks 12
Current wind is above 300° avg. (10.4)
Visibility9999 m
Phenomena:N/A
Clouds:Few 043 Hf
Expected CloudBase > 4,400 ft AGL from Temp-Dew spread
CeilingNone
Temp28°C (ISA +16)
Dew Point17°C (51% RH)
Heat Index28.5°C
AAT23.5°C
QNH1008 hPa
Density Alt3,520 ft
Elevation1,302 ft
Report Wrong Elevation
Raw Report
KMHE 191753Z AUTO 30019G27KT 10SM FEW043 28/17 A2978 RMK AO2 PK
WND 30028/1729 SLP074 60000 T02830167 10283 20194 58005=

Extra information for KMHE:More info

Metar Taf Metar & Taf Last 4 Metars F.Rules Stats Wind Profile Meteogram Temp Stats Airport Information Weather charts Add Link Nearby VenuesMetar ALERT Operation Metar Decoded Social comments

AIRNAV info for KMHE